sensor_id;sensor_type;location;lat;lon;timestamp;temperature;humidity
20141;DHT22;10231;47.702;9.826;2024-03-06T00:01:44;5.40;99.90
20141;DHT22;10231;47.702;9.826;2024-03-06T00:04:10;5.40;99.90
20141;DHT22;10231;47.702;9.826;2024-03-06T00:06:35;5.40;99.90
20141;DHT22;10231;47.702;9.826;2024-03-06T00:09:01;5.50;99.90
20141;DHT22;10231;47.702;9.826;2024-03-06T00:11:28;5.40;99.90
20141;DHT22;10231;47.702;9.826;2024-03-06T00:13:54;5.40;99.90
20141;DHT22;10231;47.702;9.826;2024-03-06T00:16:20;5.40;99.90
20141;DHT22;10231;47.702;9.826;2024-03-06T00:18:46;5.40;99.90
20141;DHT22;10231;47.702;9.826;2024-03-06T00:21:12;5.30;99.90
20141;DHT22;10231;47.702;9.826;2024-03-06T00:23:38;5.10;99.90
20141;DHT22;10231;47.702;9.826;2024-03-06T00:26:03;5.10;99.90
20141;DHT22;10231;47.702;9.826;2024-03-06T00:28:29;5.00;99.90
20141;DHT22;10231;47.702;9.826;2024-03-06T00:30:55;5.00;99.90
20141;DHT22;10231;47.702;9.826;2024-03-06T00:33:20;4.90;99.90
20141;DHT22;10231;47.702;9.826;2024-03-06T00:35:46;4.90;99.90
20141;DHT22;10231;47.702;9.826;2024-03-06T00:38:12;4.90;99.90
20141;DHT22;10231;47.702;9.826;2024-03-06T00:40:38;4.90;99.90
20141;DHT22;10231;47.702;9.826;2024-03-06T00:43:04;5.00;99.90
20141;DHT22;10231;47.702;9.826;2024-03-06T00:45:30;5.00;99.90
20141;DHT22;10231;47.702;9.826;2024-03-06T00:47:55;5.10;99.90
20141;DHT22;10231;47.702;9.826;2024-03-06T00:50:21;5.10;99.90
20141;DHT22;10231;47.702;9.826;2024-03-06T00:52:47;5.20;99.90
20141;DHT22;10231;47.702;9.826;2024-03-06T00:55:14;5.20;99.90
20141;DHT22;10231;47.702;9.826;2024-03-06T00:57:39;5.20;99.90
20141;DHT22;10231;47.702;9.826;2024-03-06T01:00:06;5.20;99.90
20141;DHT22;10231;47.702;9.826;2024-03-06T01:02:36;5.20;99.90
20141;DHT22;10231;47.702;9.826;2024-03-06T01:05:02;5.20;99.90
20141;DHT22;10231;47.702;9.826;2024-03-06T01:07:29;5.20;99.90
20141;DHT22;10231;47.702;9.826;2024-03-06T01:09:56;5.10;99.90
20141;DHT22;10231;47.702;9.826;2024-03-06T01:12:23;5.00;99.90
20141;DHT22;10231;47.702;9.826;2024-03-06T01:14:48;5.10;99.90
20141;DHT22;10231;47.702;9.826;2024-03-06T01:17:14;5.10;99.90
20141;DHT22;10231;47.702;9.826;2024-03-06T01:19:39;5.10;99.90
20141;DHT22;10231;47.702;9.826;2024-03-06T01:22:05;5.10;99.90
20141;DHT22;10231;47.702;9.826;2024-03-06T01:24:31;5.20;99.90
20141;DHT22;10231;47.702;9.826;2024-03-06T01:26:56;5.10;99.90
20141;DHT22;10231;47.702;9.826;2024-03-06T01:29:22;5.10;99.90
20141;DHT22;10231;47.702;9.826;2024-03-06T01:31:47;5.10;99.90
20141;DHT22;10231;47.702;9.826;2024-03-06T01:34:13;5.10;99.90
20141;DHT22;10231;47.702;9.826;2024-03-06T01:36:38;5.20;99.90
20141;DHT22;10231;47.702;9.826;2024-03-06T01:39:04;5.10;99.90
20141;DHT22;10231;47.702;9.826;2024-03-06T01:41:30;5.10;99.90
20141;DHT22;10231;47.702;9.826;2024-03-06T01:43:55;5.10;99.90
20141;DHT22;10231;47.702;9.826;2024-03-06T01:46:21;5.10;99.90
20141;DHT22;10231;47.702;9.826;2024-03-06T01:48:46;5.10;99.90
20141;DHT22;10231;47.702;9.826;2024-03-06T01:51:12;5.10;99.90
20141;DHT22;10231;47.702;9.826;2024-03-06T01:53:38;5.00;99.90
20141;DHT22;10231;47.702;9.826;2024-03-06T01:56:04;5.00;99.90
20141;DHT22;10231;47.702;9.826;2024-03-06T01:58:31;5.00;99.90
20141;DHT22;10231;47.702;9.826;2024-03-06T02:00:59;5.00;99.90
20141;DHT22;10231;47.702;9.826;2024-03-06T02:03:25;5.00;99.90
20141;DHT22;10231;47.702;9.826;2024-03-06T02:05:51;5.00;99.90
20141;DHT22;10231;47.702;9.826;2024-03-06T02:08:18;5.10;99.90
20141;DHT22;10231;47.702;9.826;2024-03-06T02:10:46;5.10;99.90
20141;DHT22;10231;47.702;9.826;2024-03-06T02:13:13;5.10;99.90
20141;DHT22;10231;47.702;9.826;2024-03-06T02:15:39;5.10;99.90
20141;DHT22;10231;47.702;9.826;2024-03-06T02:18:05;5.00;99.90
20141;DHT22;10231;47.702;9.826;2024-03-06T02:20:31;5.00;99.90
20141;DHT22;10231;47.702;9.826;2024-03-06T02:22:57;5.00;99.90
20141;DHT22;10231;47.702;9.826;2024-03-06T02:25:22;5.00;99.90
20141;DHT22;10231;47.702;9.826;2024-03-06T02:27:48;5.00;99.90
20141;DHT22;10231;47.702;9.826;2024-03-06T02:30:13;5.00;99.90
20141;DHT22;10231;47.702;9.826;2024-03-06T02:32:39;4.90;99.90
20141;DHT22;10231;47.702;9.826;2024-03-06T02:35:05;4.90;99.90
20141;DHT22;10231;47.702;9.826;2024-03-06T02:37:34;4.80;99.90
20141;DHT22;10231;47.702;9.826;2024-03-06T02:39:59;4.80;99.90
20141;DHT22;10231;47.702;9.826;2024-03-06T02:42:27;4.80;99.90
20141;DHT22;10231;47.702;9.826;2024-03-06T02:44:53;4.80;99.90
20141;DHT22;10231;47.702;9.826;2024-03-06T02:47:19;4.80;99.90
20141;DHT22;10231;47.702;9.826;2024-03-06T02:49:44;4.80;99.90
20141;DHT22;10231;47.702;9.826;2024-03-06T02:52:10;4.70;99.90
20141;DHT22;10231;47.702;9.826;2024-03-06T02:54:36;4.80;99.90
20141;DHT22;10231;47.702;9.826;2024-03-06T02:57:01;4.80;99.90
20141;DHT22;10231;47.702;9.826;2024-03-06T02:59:27;4.80;99.90
20141;DHT22;10231;47.702;9.826;2024-03-06T03:01:52;4.80;99.90
20141;DHT22;10231;47.702;9.826;2024-03-06T03:04:18;4.80;99.90
20141;DHT22;10231;47.702;9.826;2024-03-06T03:06:44;4.80;99.90
20141;DHT22;10231;47.702;9.826;2024-03-06T03:09:09;4.90;99.90
20141;DHT22;10231;47.702;9.826;2024-03-06T03:11:37;4.70;99.90
20141;DHT22;10231;47.702;9.826;2024-03-06T03:14:03;4.60;99.90
20141;DHT22;10231;47.702;9.826;2024-03-06T03:16:28;4.50;99.90
20141;DHT22;10231;47.702;9.826;2024-03-06T03:18:55;4.50;99.90
20141;DHT22;10231;47.702;9.826;2024-03-06T03:21:21;4.50;99.90
20141;DHT22;10231;47.702;9.826;2024-03-06T03:23:47;4.50;99.90
20141;DHT22;10231;47.702;9.826;2024-03-06T03:26:12;4.60;99.90
20141;DHT22;10231;47.702;9.826;2024-03-06T03:28:41;4.60;99.90
20141;DHT22;10231;47.702;9.826;2024-03-06T03:31:09;4.60;99.90
20141;DHT22;10231;47.702;9.826;2024-03-06T03:33:44;4.60;99.90
20141;DHT22;10231;47.702;9.826;2024-03-06T03:36:10;4.60;99.90
20141;DHT22;10231;47.702;9.826;2024-03-06T03:38:36;4.60;99.90
20141;DHT22;10231;47.702;9.826;2024-03-06T03:41:07;4.60;99.90
20141;DHT22;10231;47.702;9.826;2024-03-06T03:43:33;4.60;99.90
20141;DHT22;10231;47.702;9.826;2024-03-06T03:45:58;4.60;99.90
20141;DHT22;10231;47.702;9.826;2024-03-06T03:48:24;4.50;99.90
20141;DHT22;10231;47.702;9.826;2024-03-06T03:50:50;4.60;99.90
20141;DHT22;10231;47.702;9.826;2024-03-06T03:53:15;4.50;99.90
20141;DHT22;10231;47.702;9.826;2024-03-06T03:55:41;4.50;99.90
20141;DHT22;10231;47.702;9.826;2024-03-06T03:58:07;4.50;99.90
20141;DHT22;10231;47.702;9.826;2024-03-06T04:00:33;4.50;99.90
20141;DHT22;10231;47.702;9.826;2024-03-06T04:02:59;4.50;99.90
20141;DHT22;10231;47.702;9.826;2024-03-06T04:05:25;4.50;99.90
20141;DHT22;10231;47.702;9.826;2024-03-06T04:07:51;4.50;99.90
20141;DHT22;10231;47.702;9.826;2024-03-06T04:10:16;4.50;99.90
20141;DHT22;10231;47.702;9.826;2024-03-06T04:12:42;4.50;99.90
20141;DHT22;10231;47.702;9.826;2024-03-06T04:15:08;4.60;99.90
20141;DHT22;10231;47.702;9.826;2024-03-06T04:17:34;4.50;99.90
20141;DHT22;10231;47.702;9.826;2024-03-06T04:20:01;4.50;99.90
20141;DHT22;10231;47.702;9.826;2024-03-06T04:22:28;4.50;99.90
20141;DHT22;10231;47.702;9.826;2024-03-06T04:24:54;4.50;99.90
20141;DHT22;10231;47.702;9.826;2024-03-06T04:27:21;4.50;99.90
20141;DHT22;10231;47.702;9.826;2024-03-06T04:29:47;4.60;99.90
20141;DHT22;10231;47.702;9.826;2024-03-06T04:32:12;4.50;99.90
20141;DHT22;10231;47.702;9.826;2024-03-06T04:34:38;4.40;99.90
20141;DHT22;10231;47.702;9.826;2024-03-06T04:37:04;4.30;99.90
20141;DHT22;10231;47.702;9.826;2024-03-06T04:39:29;4.30;99.90
20141;DHT22;10231;47.702;9.826;2024-03-06T04:41:55;4.30;99.90
20141;DHT22;10231;47.702;9.826;2024-03-06T04:44:20;4.30;99.90
20141;DHT22;10231;47.702;9.826;2024-03-06T04:46:46;4.30;99.90
20141;DHT22;10231;47.702;9.826;2024-03-06T04:49:14;4.30;99.90
20141;DHT22;10231;47.702;9.826;2024-03-06T04:51:40;4.30;99.90
20141;DHT22;10231;47.702;9.826;2024-03-06T04:54:05;4.30;99.90
20141;DHT22;10231;47.702;9.826;2024-03-06T04:56:31;4.20;99.90
20141;DHT22;10231;47.702;9.826;2024-03-06T04:58:56;4.40;99.90
20141;DHT22;10231;47.702;9.826;2024-03-06T05:01:28;4.40;99.90
20141;DHT22;10231;47.702;9.826;2024-03-06T05:03:54;4.40;99.90
20141;DHT22;10231;47.702;9.826;2024-03-06T05:06:20;4.40;99.90
20141;DHT22;10231;47.702;9.826;2024-03-06T05:08:45;4.50;99.90
20141;DHT22;10231;47.702;9.826;2024-03-06T05:11:11;4.50;99.90
20141;DHT22;10231;47.702;9.826;2024-03-06T05:13:36;4.50;99.90
20141;DHT22;10231;47.702;9.826;2024-03-06T05:16:02;4.60;99.90
20141;DHT22;10231;47.702;9.826;2024-03-06T05:18:28;4.60;99.90
20141;DHT22;10231;47.702;9.826;2024-03-06T05:20:53;4.50;99.90
20141;DHT22;10231;47.702;9.826;2024-03-06T05:23:19;4.30;99.90
20141;DHT22;10231;47.702;9.826;2024-03-06T05:25:45;4.40;99.90
20141;DHT22;10231;47.702;9.826;2024-03-06T05:28:11;4.30;99.90
20141;DHT22;10231;47.702;9.826;2024-03-06T05:30:36;4.10;99.90
20141;DHT22;10231;47.702;9.826;2024-03-06T05:33:02;4.10;99.90
20141;DHT22;10231;47.702;9.826;2024-03-06T05:35:28;4.10;99.90
20141;DHT22;10231;47.702;9.826;2024-03-06T05:37:53;4.20;99.90
20141;DHT22;10231;47.702;9.826;2024-03-06T05:40:19;4.10;99.90
20141;DHT22;10231;47.702;9.826;2024-03-06T05:42:44;4.10;99.90
20141;DHT22;10231;47.702;9.826;2024-03-06T05:45:10;4.10;99.90
20141;DHT22;10231;47.702;9.826;2024-03-06T05:47:38;4.10;99.90
20141;DHT22;10231;47.702;9.826;2024-03-06T05:50:08;4.10;99.90
20141;DHT22;10231;47.702;9.826;2024-03-06T05:52:34;4.10;99.90
20141;DHT22;10231;47.702;9.826;2024-03-06T05:55:00;4.20;99.90
20141;DHT22;10231;47.702;9.826;2024-03-06T05:57:25;4.20;99.90
20141;DHT22;10231;47.702;9.826;2024-03-06T05:59:51;4.10;99.90
20141;DHT22;10231;47.702;9.826;2024-03-06T06:02:17;4.20;99.90
20141;DHT22;10231;47.702;9.826;2024-03-06T06:04:45;4.10;99.90
20141;DHT22;10231;47.702;9.826;2024-03-06T06:07:10;4.10;99.90
20141;DHT22;10231;47.702;9.826;2024-03-06T06:09:36;4.10;99.90
20141;DHT22;10231;47.702;9.826;2024-03-06T06:12:01;4.00;99.90
20141;DHT22;10231;47.702;9.826;2024-03-06T06:14:28;4.00;99.90
20141;DHT22;10231;47.702;9.826;2024-03-06T06:16:55;4.00;99.90
20141;DHT22;10231;47.702;9.826;2024-03-06T06:19:21;4.00;99.90
20141;DHT22;10231;47.702;9.826;2024-03-06T06:21:46;4.00;99.90
20141;DHT22;10231;47.702;9.826;2024-03-06T06:24:13;4.00;99.90
20141;DHT22;10231;47.702;9.826;2024-03-06T06:26:38;4.00;99.90
20141;DHT22;10231;47.702;9.826;2024-03-06T06:29:04;4.00;99.90
20141;DHT22;10231;47.702;9.826;2024-03-06T06:31:30;4.00;99.90
20141;DHT22;10231;47.702;9.826;2024-03-06T06:33:56;4.00;99.90
20141;DHT22;10231;47.702;9.826;2024-03-06T06:36:21;4.10;99.90
20141;DHT22;10231;47.702;9.826;2024-03-06T06:38:48;4.00;99.90
20141;DHT22;10231;47.702;9.826;2024-03-06T06:41:14;3.90;99.90
20141;DHT22;10231;47.702;9.826;2024-03-06T06:43:40;4.00;99.90
20141;DHT22;10231;47.702;9.826;2024-03-06T06:46:08;4.00;99.90
20141;DHT22;10231;47.702;9.826;2024-03-06T06:48:33;4.00;99.90
20141;DHT22;10231;47.702;9.826;2024-03-06T06:51:00;4.00;99.90
20141;DHT22;10231;47.702;9.826;2024-03-06T06:53:31;4.00;99.90
20141;DHT22;10231;47.702;9.826;2024-03-06T06:55:57;4.00;99.90
20141;DHT22;10231;47.702;9.826;2024-03-06T06:58:23;4.00;99.90
20141;DHT22;10231;47.702;9.826;2024-03-06T07:00:49;4.10;99.90
20141;DHT22;10231;47.702;9.826;2024-03-06T07:03:14;4.00;99.90
20141;DHT22;10231;47.702;9.826;2024-03-06T07:05:40;4.00;99.90
20141;DHT22;10231;47.702;9.826;2024-03-06T07:08:07;4.10;99.90
20141;DHT22;10231;47.702;9.826;2024-03-06T07:10:33;4.10;99.90
20141;DHT22;10231;47.702;9.826;2024-03-06T07:13:01;4.00;99.90
20141;DHT22;10231;47.702;9.826;2024-03-06T07:15:28;4.00;99.90
20141;DHT22;10231;47.702;9.826;2024-03-06T07:17:53;4.00;99.90
20141;DHT22;10231;47.702;9.826;2024-03-06T07:20:19;4.10;99.90
20141;DHT22;10231;47.702;9.826;2024-03-06T07:22:45;4.10;99.90
20141;DHT22;10231;47.702;9.826;2024-03-06T07:25:10;4.20;99.90
20141;DHT22;10231;47.702;9.826;2024-03-06T07:27:36;4.10;99.90
20141;DHT22;10231;47.702;9.826;2024-03-06T07:30:01;4.10;99.90
20141;DHT22;10231;47.702;9.826;2024-03-06T07:32:27;4.10;99.90
20141;DHT22;10231;47.702;9.826;2024-03-06T07:34:53;4.10;99.90
20141;DHT22;10231;47.702;9.826;2024-03-06T07:37:18;4.10;99.90
20141;DHT22;10231;47.702;9.826;2024-03-06T07:39:44;4.20;99.90
20141;DHT22;10231;47.702;9.826;2024-03-06T07:42:11;4.20;99.90
20141;DHT22;10231;47.702;9.826;2024-03-06T07:44:36;4.20;99.90
20141;DHT22;10231;47.702;9.826;2024-03-06T07:47:02;4.20;99.90
20141;DHT22;10231;47.702;9.826;2024-03-06T07:49:28;4.20;99.90
20141;DHT22;10231;47.702;9.826;2024-03-06T07:51:53;4.10;99.90
20141;DHT22;10231;47.702;9.826;2024-03-06T07:54:19;4.20;99.90
20141;DHT22;10231;47.702;9.826;2024-03-06T07:56:44;4.30;99.90
20141;DHT22;10231;47.702;9.826;2024-03-06T07:59:10;4.30;99.90
20141;DHT22;10231;47.702;9.826;2024-03-06T08:01:38;4.20;99.90
20141;DHT22;10231;47.702;9.826;2024-03-06T08:04:04;4.20;99.90
20141;DHT22;10231;47.702;9.826;2024-03-06T08:06:29;4.30;99.90
20141;DHT22;10231;47.702;9.826;2024-03-06T08:08:58;4.30;99.90
20141;DHT22;10231;47.702;9.826;2024-03-06T08:11:24;4.30;99.90
20141;DHT22;10231;47.702;9.826;2024-03-06T08:13:56;4.40;99.90
20141;DHT22;10231;47.702;9.826;2024-03-06T08:16:22;4.40;99.90
20141;DHT22;10231;47.702;9.826;2024-03-06T08:18:47;4.40;99.90
20141;DHT22;10231;47.702;9.826;2024-03-06T08:21:13;4.40;99.90
20141;DHT22;10231;47.702;9.826;2024-03-06T08:23:41;4.40;99.90
20141;DHT22;10231;47.702;9.826;2024-03-06T08:26:08;4.40;99.90
20141;DHT22;10231;47.702;9.826;2024-03-06T08:28:34;4.40;99.90
20141;DHT22;10231;47.702;9.826;2024-03-06T08:31:00;4.40;99.90
20141;DHT22;10231;47.702;9.826;2024-03-06T08:33:25;4.30;99.90
20141;DHT22;10231;47.702;9.826;2024-03-06T08:35:51;4.30;99.90
20141;DHT22;10231;47.702;9.826;2024-03-06T08:38:16;4.40;99.90
20141;DHT22;10231;47.702;9.826;2024-03-06T08:40:42;4.40;99.90
20141;DHT22;10231;47.702;9.826;2024-03-06T08:43:13;4.40;99.90
20141;DHT22;10231;47.702;9.826;2024-03-06T08:45:41;4.50;99.90
20141;DHT22;10231;47.702;9.826;2024-03-06T08:48:06;4.50;99.90
20141;DHT22;10231;47.702;9.826;2024-03-06T08:50:32;4.50;99.90
20141;DHT22;10231;47.702;9.826;2024-03-06T08:52:58;4.50;99.90
20141;DHT22;10231;47.702;9.826;2024-03-06T08:55:23;4.60;99.90
20141;DHT22;10231;47.702;9.826;2024-03-06T08:57:49;4.60;99.90
20141;DHT22;10231;47.702;9.826;2024-03-06T09:00:16;4.60;99.90
20141;DHT22;10231;47.702;9.826;2024-03-06T09:02:43;4.70;99.90
20141;DHT22;10231;47.702;9.826;2024-03-06T09:05:09;4.80;99.90
20141;DHT22;10231;47.702;9.826;2024-03-06T09:07:36;4.70;99.90
20141;DHT22;10231;47.702;9.826;2024-03-06T09:10:12;4.70;99.90
20141;DHT22;10231;47.702;9.826;2024-03-06T09:12:38;4.60;99.90
20141;DHT22;10231;47.702;9.826;2024-03-06T09:15:04;4.50;99.90
20141;DHT22;10231;47.702;9.826;2024-03-06T09:17:32;4.50;99.90
20141;DHT22;10231;47.702;9.826;2024-03-06T09:19:58;4.50;99.90
20141;DHT22;10231;47.702;9.826;2024-03-06T09:22:23;4.50;99.90
20141;DHT22;10231;47.702;9.826;2024-03-06T09:24:49;4.50;99.90
20141;DHT22;10231;47.702;9.826;2024-03-06T09:27:15;4.50;99.90
20141;DHT22;10231;47.702;9.826;2024-03-06T09:29:42;4.50;99.90
20141;DHT22;10231;47.702;9.826;2024-03-06T09:32:08;4.50;99.90
20141;DHT22;10231;47.702;9.826;2024-03-06T09:34:33;4.30;99.90
20141;DHT22;10231;47.702;9.826;2024-03-06T09:36:59;4.40;99.90
20141;DHT22;10231;47.702;9.826;2024-03-06T09:39:25;4.30;99.90
20141;DHT22;10231;47.702;9.826;2024-03-06T09:41:51;4.30;99.90
20141;DHT22;10231;47.702;9.826;2024-03-06T09:44:17;4.20;99.90
20141;DHT22;10231;47.702;9.826;2024-03-06T09:46:44;4.20;99.90
20141;DHT22;10231;47.702;9.826;2024-03-06T09:49:15;4.30;99.90
20141;DHT22;10231;47.702;9.826;2024-03-06T09:51:45;4.20;99.90
20141;DHT22;10231;47.702;9.826;2024-03-06T09:54:14;4.20;99.90
20141;DHT22;10231;47.702;9.826;2024-03-06T09:56:43;4.30;99.90
20141;DHT22;10231;47.702;9.826;2024-03-06T09:59:10;4.30;99.90
20141;DHT22;10231;47.702;9.826;2024-03-06T10:01:41;4.40;99.90
20141;DHT22;10231;47.702;9.826;2024-03-06T10:04:22;4.30;99.90
20141;DHT22;10231;47.702;9.826;2024-03-06T10:06:50;4.30;99.90
20141;DHT22;10231;47.702;9.826;2024-03-06T10:09:19;4.30;99.90
20141;DHT22;10231;47.702;9.826;2024-03-06T10:11:45;4.40;99.90
20141;DHT22;10231;47.702;9.826;2024-03-06T10:14:11;4.30;99.90
20141;DHT22;10231;47.702;9.826;2024-03-06T10:16:37;4.30;99.90
20141;DHT22;10231;47.702;9.826;2024-03-06T10:19:16;4.30;99.90
20141;DHT22;10231;47.702;9.826;2024-03-06T10:21:47;4.40;99.90
20141;DHT22;10231;47.702;9.826;2024-03-06T10:24:19;4.40;99.90
20141;DHT22;10231;47.702;9.826;2024-03-06T10:26:46;4.50;99.90
20141;DHT22;10231;47.702;9.826;2024-03-06T10:29:17;4.50;99.90
20141;DHT22;10231;47.702;9.826;2024-03-06T10:31:53;4.50;99.90
20141;DHT22;10231;47.702;9.826;2024-03-06T10:34:23;4.50;99.90
20141;DHT22;10231;47.702;9.826;2024-03-06T10:36:57;4.50;99.90
20141;DHT22;10231;47.702;9.826;2024-03-06T10:39:23;4.40;99.90
20141;DHT22;10231;47.702;9.826;2024-03-06T10:41:56;4.30;99.90
20141;DHT22;10231;47.702;9.826;2024-03-06T10:44:26;4.30;99.90
20141;DHT22;10231;47.702;9.826;2024-03-06T10:46:58;4.40;99.90
20141;DHT22;10231;47.702;9.826;2024-03-06T10:49:26;4.30;99.90
20141;DHT22;10231;47.702;9.826;2024-03-06T10:51:57;4.40;99.90
20141;DHT22;10231;47.702;9.826;2024-03-06T10:54:23;4.40;99.90
20141;DHT22;10231;47.702;9.826;2024-03-06T10:56:51;4.40;99.90
20141;DHT22;10231;47.702;9.826;2024-03-06T10:59:20;4.40;99.90
20141;DHT22;10231;47.702;9.826;2024-03-06T11:01:46;4.50;99.90
20141;DHT22;10231;47.702;9.826;2024-03-06T11:04:13;4.50;99.90
20141;DHT22;10231;47.702;9.826;2024-03-06T11:06:39;4.50;99.90
20141;DHT22;10231;47.702;9.826;2024-03-06T11:09:04;4.60;99.90
20141;DHT22;10231;47.702;9.826;2024-03-06T11:11:31;4.60;99.90
20141;DHT22;10231;47.702;9.826;2024-03-06T11:14:06;4.60;99.90
20141;DHT22;10231;47.702;9.826;2024-03-06T11:19:22;4.60;99.90
20141;DHT22;10231;47.702;9.826;2024-03-06T11:21:47;4.60;99.90
20141;DHT22;10231;47.702;9.826;2024-03-06T11:24:20;4.70;99.90
20141;DHT22;10231;47.702;9.826;2024-03-06T11:26:56;4.60;99.90
20141;DHT22;10231;47.702;9.826;2024-03-06T11:29:28;4.60;99.90
20141;DHT22;10231;47.702;9.826;2024-03-06T11:32:12;4.60;99.90
20141;DHT22;10231;47.702;9.826;2024-03-06T11:34:38;4.60;99.90
20141;DHT22;10231;47.702;9.826;2024-03-06T11:37:07;4.60;99.90
20141;DHT22;10231;47.702;9.826;2024-03-06T11:39:35;4.60;99.90
20141;DHT22;10231;47.702;9.826;2024-03-06T11:42:02;4.60;99.90
20141;DHT22;10231;47.702;9.826;2024-03-06T11:44:27;4.70;99.90
20141;DHT22;10231;47.702;9.826;2024-03-06T11:47:03;4.70;99.90
20141;DHT22;10231;47.702;9.826;2024-03-06T11:49:30;4.70;99.90
20141;DHT22;10231;47.702;9.826;2024-03-06T11:54:30;4.70;99.90
20141;DHT22;10231;47.702;9.826;2024-03-06T11:56:59;4.70;99.90
20141;DHT22;10231;47.702;9.826;2024-03-06T11:59:32;4.70;99.90
20141;DHT22;10231;47.702;9.826;2024-03-06T12:02:03;4.70;99.90
20141;DHT22;10231;47.702;9.826;2024-03-06T12:04:33;4.80;99.90
20141;DHT22;10231;47.702;9.826;2024-03-06T12:07:00;4.80;99.90
20141;DHT22;10231;47.702;9.826;2024-03-06T12:09:30;4.90;99.90
20141;DHT22;10231;47.702;9.826;2024-03-06T12:11:56;4.60;99.90
20141;DHT22;10231;47.702;9.826;2024-03-06T12:14:22;4.60;99.90
20141;DHT22;10231;47.702;9.826;2024-03-06T12:16:58;4.60;99.90
20141;DHT22;10231;47.702;9.826;2024-03-06T12:19:26;4.60;99.90
20141;DHT22;10231;47.702;9.826;2024-03-06T12:21:53;4.50;99.90
20141;DHT22;10231;47.702;9.826;2024-03-06T12:24:19;4.50;99.90
20141;DHT22;10231;47.702;9.826;2024-03-06T12:26:46;4.50;99.90
20141;DHT22;10231;47.702;9.826;2024-03-06T12:29:17;4.50;99.90
20141;DHT22;10231;47.702;9.826;2024-03-06T12:31:43;4.40;99.90
20141;DHT22;10231;47.702;9.826;2024-03-06T12:34:13;4.30;99.90
20141;DHT22;10231;47.702;9.826;2024-03-06T12:36:38;4.30;99.90
20141;DHT22;10231;47.702;9.826;2024-03-06T12:39:04;4.50;99.90
20141;DHT22;10231;47.702;9.826;2024-03-06T12:41:41;4.40;99.90
20141;DHT22;10231;47.702;9.826;2024-03-06T12:44:06;4.40;99.90
20141;DHT22;10231;47.702;9.826;2024-03-06T12:46:32;4.40;99.90
20141;DHT22;10231;47.702;9.826;2024-03-06T12:48:58;4.50;99.90
20141;DHT22;10231;47.702;9.826;2024-03-06T12:51:24;4.50;99.90
20141;DHT22;10231;47.702;9.826;2024-03-06T12:53:49;4.50;99.90
20141;DHT22;10231;47.702;9.826;2024-03-06T12:56:17;4.50;99.90
20141;DHT22;10231;47.702;9.826;2024-03-06T12:58:42;4.50;99.90
20141;DHT22;10231;47.702;9.826;2024-03-06T13:01:08;4.60;99.90
20141;DHT22;10231;47.702;9.826;2024-03-06T13:03:34;4.60;99.90
20141;DHT22;10231;47.702;9.826;2024-03-06T13:05:59;4.60;99.90
20141;DHT22;10231;47.702;9.826;2024-03-06T13:08:25;4.60;99.90
20141;DHT22;10231;47.702;9.826;2024-03-06T13:10:51;4.70;99.90
20141;DHT22;10231;47.702;9.826;2024-03-06T13:13:17;4.70;99.90
20141;DHT22;10231;47.702;9.826;2024-03-06T13:15:42;4.60;99.90
20141;DHT22;10231;47.702;9.826;2024-03-06T13:18:09;4.60;99.90
20141;DHT22;10231;47.702;9.826;2024-03-06T13:20:34;4.50;99.90
20141;DHT22;10231;47.702;9.826;2024-03-06T13:23:00;4.50;99.90
20141;DHT22;10231;47.702;9.826;2024-03-06T13:25:26;4.50;99.90
20141;DHT22;10231;47.702;9.826;2024-03-06T13:27:52;4.40;99.90
20141;DHT22;10231;47.702;9.826;2024-03-06T13:30:18;4.40;99.90
20141;DHT22;10231;47.702;9.826;2024-03-06T13:32:43;4.30;99.90
20141;DHT22;10231;47.702;9.826;2024-03-06T13:35:11;4.30;99.90
20141;DHT22;10231;47.702;9.826;2024-03-06T13:37:39;4.30;99.90
20141;DHT22;10231;47.702;9.826;2024-03-06T13:40:07;4.20;99.90
20141;DHT22;10231;47.702;9.826;2024-03-06T13:42:34;4.20;99.90
20141;DHT22;10231;47.702;9.826;2024-03-06T13:44:59;4.20;99.90
20141;DHT22;10231;47.702;9.826;2024-03-06T13:47:25;4.20;99.90
20141;DHT22;10231;47.702;9.826;2024-03-06T13:49:51;4.10;99.90
20141;DHT22;10231;47.702;9.826;2024-03-06T13:52:17;4.00;99.90
20141;DHT22;10231;47.702;9.826;2024-03-06T13:54:45;4.00;99.90
20141;DHT22;10231;47.702;9.826;2024-03-06T13:57:12;4.00;99.90
20141;DHT22;10231;47.702;9.826;2024-03-06T13:59:38;4.00;99.90
20141;DHT22;10231;47.702;9.826;2024-03-06T14:02:03;3.80;99.90
20141;DHT22;10231;47.702;9.826;2024-03-06T14:04:29;3.80;99.90
20141;DHT22;10231;47.702;9.826;2024-03-06T14:06:56;3.90;99.90
20141;DHT22;10231;47.702;9.826;2024-03-06T14:09:22;3.90;99.90
20141;DHT22;10231;47.702;9.826;2024-03-06T14:11:49;3.90;99.90
20141;DHT22;10231;47.702;9.826;2024-03-06T14:14:16;3.90;99.90
20141;DHT22;10231;47.702;9.826;2024-03-06T14:16:41;3.90;99.90
20141;DHT22;10231;47.702;9.826;2024-03-06T14:19:08;4.00;99.90
20141;DHT22;10231;47.702;9.826;2024-03-06T14:21:33;4.00;99.90
20141;DHT22;10231;47.702;9.826;2024-03-06T14:24:01;4.00;99.90
20141;DHT22;10231;47.702;9.826;2024-03-06T14:26:31;4.20;99.90
20141;DHT22;10231;47.702;9.826;2024-03-06T14:28:57;4.20;99.90
20141;DHT22;10231;47.702;9.826;2024-03-06T14:31:23;4.20;99.90
20141;DHT22;10231;47.702;9.826;2024-03-06T14:33:48;4.10;99.90
20141;DHT22;10231;47.702;9.826;2024-03-06T14:36:18;4.10;99.90
20141;DHT22;10231;47.702;9.826;2024-03-06T14:38:43;4.00;99.90
20141;DHT22;10231;47.702;9.826;2024-03-06T14:41:13;4.00;99.90
20141;DHT22;10231;47.702;9.826;2024-03-06T14:43:38;4.10;99.90
20141;DHT22;10231;47.702;9.826;2024-03-06T14:46:07;4.20;99.90
20141;DHT22;10231;47.702;9.826;2024-03-06T14:48:34;4.10;99.90
20141;DHT22;10231;47.702;9.826;2024-03-06T14:51:03;4.10;99.90
20141;DHT22;10231;47.702;9.826;2024-03-06T14:53:28;4.10;99.90
20141;DHT22;10231;47.702;9.826;2024-03-06T14:55:55;4.00;99.90
20141;DHT22;10231;47.702;9.826;2024-03-06T14:58:21;4.00;99.90
20141;DHT22;10231;47.702;9.826;2024-03-06T15:00:46;4.10;99.90
20141;DHT22;10231;47.702;9.826;2024-03-06T15:03:12;4.10;99.90
20141;DHT22;10231;47.702;9.826;2024-03-06T15:05:38;4.00;99.90
20141;DHT22;10231;47.702;9.826;2024-03-06T15:08:03;4.00;99.90
20141;DHT22;10231;47.702;9.826;2024-03-06T15:10:30;4.00;99.90
20141;DHT22;10231;47.702;9.826;2024-03-06T15:12:57;4.00;99.90
20141;DHT22;10231;47.702;9.826;2024-03-06T15:15:23;4.00;99.90
20141;DHT22;10231;47.702;9.826;2024-03-06T15:17:48;4.00;99.90
20141;DHT22;10231;47.702;9.826;2024-03-06T15:20:14;4.00;99.90
20141;DHT22;10231;47.702;9.826;2024-03-06T15:22:39;4.00;99.90
20141;DHT22;10231;47.702;9.826;2024-03-06T15:25:12;4.00;99.90
20141;DHT22;10231;47.702;9.826;2024-03-06T15:27:38;3.90;99.90
20141;DHT22;10231;47.702;9.826;2024-03-06T15:30:05;4.00;99.90
20141;DHT22;10231;47.702;9.826;2024-03-06T15:32:31;4.00;99.90
20141;DHT22;10231;47.702;9.826;2024-03-06T15:34:57;3.90;99.90
20141;DHT22;10231;47.702;9.826;2024-03-06T15:37:24;3.90;99.90
20141;DHT22;10231;47.702;9.826;2024-03-06T15:39:51;3.80;99.90
20141;DHT22;10231;47.702;9.826;2024-03-06T15:42:17;3.80;99.90
20141;DHT22;10231;47.702;9.826;2024-03-06T15:44:42;3.80;99.90
20141;DHT22;10231;47.702;9.826;2024-03-06T15:47:08;3.80;99.90